| time (UTC) | temp F | wind direction | speed knots | gust knots | rain 1hr in | rain 24hr in | rain mn in | humidity % | barometer mb |
| 20260906230043 | 67 | 32 | 3.5 | 10.4 | 0.00 | 0.00 | 0.00 | 65 | 1015.7 |
| 20260906224551 | 67 | 341 | 3.5 | 9.6 | 0.00 | 0.00 | 0.00 | 66 | 1015.8 |
| 20260906223057 | 67 | 323 | 6.1 | 11.3 | 0.00 | 0.00 | 0.00 | 66 | 1015.9 |
| 20260906221544 | 67 | 355 | 5.2 | 9.6 | 0.00 | 0.00 | 0.00 | 67 | 1015.9 |
| 20260906220050 | 67 | 329 | 3.5 | 8.7 | 0.00 | 0.00 | 0.00 | 66 | 1016.0 |
| 20260906214559 | 67 | 15 | 6.1 | 8.7 | 0.00 | 0.00 | 0.00 | 65 | 1015.9 |
| 20260906213043 | 67 | 5 | 4.3 | 8.7 | 0.00 | 0.00 | 0.00 | 66 | 1016.0 |
| 20260906211554 | 66 | 349 | 6.1 | 10.4 | 0.00 | 0.00 | 0.00 | 66 | 1016.0 |
| 20260906210111 | 66 | 5 | 5.2 | 8.7 | 0.00 | 0.00 | 0.00 | 66 | 1016.0 |
| 20260906204554 | 66 | 12 | 6.1 | 9.6 | 0.00 | 0.00 | 0.00 | 67 | 1016.1 |
| 20260906203053 | 65 | 5 | 2.6 | 5.2 | 0.00 | 0.00 | 0.00 | 69 | 1016.2 |
| 20260906201554 | 65 | 24 | 3.5 | 7.0 | 0.00 | 0.00 | 0.00 | 70 | 1016.4 |
| 20260906200046 | 64 | 333 | 2.6 | 7.8 | 0.00 | 0.00 | 0.00 | 70 | 1016.5 |
| 20260906194556 | 64 | 325 | 3.5 | 7.0 | 0.00 | 0.00 | 0.00 | 72 | 1016.5 |
| 20260906193050 | 63 | 352 | 0.9 | 8.7 | 0.00 | 0.00 | 0.00 | 75 | 1016.6 |
| 20260906191602 | 64 | 53 | 5.2 | 11.3 | 0.00 | 0.00 | 0.00 | 74 | 1016.8 |
| 20260906190048 | 63 | 25 | 9.6 | 13.9 | 0.00 | 0.00 | 0.00 | 73 | 1017.1 |
| 20260906184555 | 62 | 32 | 9.6 | 15.6 | 0.00 | 0.00 | 0.00 | 74 | 1017.1 |
| 20260906183052 | 62 | 28 | 11.3 | 17.4 | 0.00 | 0.00 | 0.00 | 75 | 1017.3 |
| 20260906181550 | 61 | 42 | 13.9 | 20.9 | 0.00 | 0.00 | 0.00 | 78 | 1017.1 |
| 20260906180106 | 59 | 36 | 13.0 | 17.4 | 0.00 | 0.00 | 0.00 | 85 | 1017.2 |
| 20260906174556 | 57 | 329 | 7.0 | 12.2 | 0.00 | 0.00 | 0.00 | 90 | 1017.9 |
| 20260906173045 | 58 | 311 | 7.0 | 11.3 | 0.00 | 0.00 | 0.00 | 89 | 1018.1 |
| 20260906171553 | 58 | 304 | 7.8 | 10.4 | 0.00 | 0.00 | 0.00 | 90 | 1018.4 |
| 20260906170050 | 57 | 309 | 5.2 | 8.7 | 0.00 | 0.00 | 0.00 | 92 | 1018.5 |
| 20260906164547 | 56 | 329 | 6.1 | 8.7 | 0.00 | 0.00 | 0.00 | 92 | 1018.6 |
| 20260906163059 | 56 | 314 | 5.2 | 9.6 | 0.00 | 0.00 | 0.00 | 91 | 1018.7 |
| 20260906161552 | 55 | 319 | 6.1 | 11.3 | 0.00 | 0.00 | 0.00 | 90 | 1018.7 |
| 20260906160057 | 56 | 323 | 7.8 | 16.5 | 0.00 | 0.00 | 0.00 | 87 | 1018.9 |
| 20260906154552 | 57 | 306 | 10.4 | 15.6 | 0.00 | 0.00 | 0.00 | 83 | 1018.9 |
| 20260906153111 | 58 | 309 | 7.8 | 12.2 | 0.00 | 0.00 | 0.00 | 82 | 1018.7 |
| 20260906151558 | 59 | 300 | 7.8 | 11.3 | 0.00 | 0.00 | 0.00 | 80 | 1019.3 |
| 20260906150045 | 60 | 59 | 0.0 | 0.9 | 0.00 | 0.00 | 0.00 | 83 | 1019.5 |
| 20260906144550 | 60 | 74 | 2.6 | 5.2 | 0.00 | 0.00 | 0.00 | 82 | 1019.5 |
| 20260906143053 | 61 | 65 | 7.8 | 12.2 | 0.00 | 0.00 | 0.00 | 82 | 1019.2 |
| 20260906141551 | 61 | 60 | 9.6 | 13.9 | 0.00 | 0.00 | 0.00 | 81 | 1018.8 |
| 20260906140058 | 60 | 53 | 7.0 | 10.4 | 0.00 | 0.00 | 0.00 | 82 | 1018.7 |
| 20260906134605 | 59 | 55 | 7.0 | 11.3 | 0.00 | 0.00 | 0.00 | 83 | 1018.9 |
| 20260906133056 | 59 | 45 | 7.8 | 10.4 | 0.00 | 0.00 | 0.00 | 83 | 1018.9 |
| 20260906131552 | 58 | 41 | 4.3 | 9.6 | 0.00 | 0.00 | 0.00 | 84 | 1019.1 |
| 20260906130050 | 58 | 30 | 5.2 | 8.7 | 0.00 | 0.00 | 0.00 | 85 | 1018.9 |
| 20260906124557 | 57 | 5 | 5.2 | 8.7 | 0.00 | 0.00 | 0.00 | 85 | 1019.3 |
| 20260906123059 | 57 | 25 | 7.0 | 11.3 | 0.00 | 0.00 | 0.00 | 85 | 1019.2 |
| 20260906121605 | 57 | 31 | 7.8 | 11.3 | 0.00 | 0.00 | 0.00 | 85 | 1018.5 |
| 20260906120048 | 57 | 24 | 7.0 | 10.4 | 0.00 | 0.00 | 0.00 | 85 | 1018.7 |
| 20260906114553 | 57 | 14 | 7.8 | 10.4 | 0.00 | 0.00 | 0.00 | 85 | 1018.8 |
| 20260906113053 | 57 | 31 | 7.0 | 11.3 | 0.00 | 0.00 | 0.00 | 85 | 1018.7 |
| 20260906111550 | 56 | 345 | 7.8 | 11.3 | 0.00 | 0.00 | 0.00 | 86 | 1018.6 |
| 20260906104555 | 56 | 360 | 7.8 | 11.3 | 0.00 | 0.00 | 0.00 | 85 | 1019.0 |
| 20260906103104 | 56 | 355 | 7.0 | 13.0 | 0.00 | 0.00 | 0.00 | 85 | 1019.1 |
| 20260906101555 | 56 | 340 | 9.6 | 13.9 | 0.00 | 0.00 | 0.00 | 84 | 1019.1 |
| 20260906094554 | 56 | 355 | 10.4 | 14.8 | 0.00 | 0.00 | 0.00 | 83 | 1018.9 |
| 20260906093041 | 57 | 348 | 6.1 | 13.0 | 0.00 | 0.00 | 0.00 | 82 | 1019.0 |
| 20260906091559 | 57 | 344 | 10.4 | 15.6 | 0.00 | 0.00 | 0.00 | 81 | 1019.1 |
| 20260906090439 | 58 | 348 | 10.4 | 15.6 | 0.00 | 0.00 | 0.00 | 81 | 1019.2 |
| 20260906084534 | 58 | 347 | 7.8 | 13.9 | 0.00 | 0.00 | 0.00 | 80 | 1019.4 |
| 20260906080034 | 58 | 19 | 9.6 | 14.8 | 0.00 | 0.00 | 0.00 | 79 | 1019.8 |
| 20260906070041 | 59 | 5 | 7.0 | 12.2 | 0.00 | 0.00 | 0.00 | 77 | 1020.1 |
| 20260906063045 | 59 | 311 | 5.2 | 10.4 | 0.00 | 0.00 | 0.00 | 76 | 1020.6 |
| 20260906060042 | 59 | 360 | 9.6 | 17.4 | 0.00 | 0.00 | 0.00 | 76 | 1020.1 |
| 20260906054541 | 59 | 30 | 13.0 | 17.4 | 0.00 | 0.00 | 0.00 | 75 | 1020.0 |
| 20260906051556 | 60 | 5 | 13.9 | 20.9 | 0.00 | 0.00 | 0.00 | 72 | 1019.6 |
| 20260906050053 | 60 | 5 | 12.2 | 19.1 | 0.00 | 0.00 | 0.00 | 71 | 1019.8 |
| 20260906044545 | 61 | 360 | 11.3 | 18.2 | 0.00 | 0.00 | 0.00 | 69 | 1019.7 |
| 20260906043051 | 61 | 13 | 13.0 | 18.2 | 0.00 | 0.00 | 0.00 | 68 | 1019.6 |
| 20260906041542 | 61 | 15 | 16.5 | 22.6 | 0.00 | 0.00 | 0.00 | 67 | 1018.8 |
| 20260906040046 | 61 | 9 | 15.6 | 21.7 | 0.00 | 0.00 | 0.00 | 66 | 1018.6 |
| 20260906034605 | 61 | 360 | 16.5 | 23.5 | 0.00 | 0.00 | 0.00 | 66 | 1018.9 |
| 20260906033044 | 61 | 360 | 14.8 | 21.7 | 0.00 | 0.00 | 0.00 | 66 | 1019.2 |
| 20260906031547 | 61 | 5 | 14.8 | 20.0 | 0.00 | 0.00 | 0.00 | 65 | 1019.4 |
| 20260906030045 | 61 | 10 | 14.8 | 20.0 | 0.00 | 0.00 | 0.00 | 64 | 1018.6 |
| 20260906024542 | 62 | 13 | 13.9 | 20.9 | 0.00 | 0.00 | 0.00 | 64 | 1018.0 |
| 20260906023040 | 62 | 15 | 15.6 | 20.9 | 0.00 | 0.00 | 0.00 | 63 | 1017.8 |
| 20260906021541 | 63 | 15 | 13.9 | 21.7 | 0.00 | 0.00 | 0.00 | 61 | 1018.0 |
| 20260906020055 | 64 | 17 | 14.8 | 20.9 | 0.00 | 0.00 | 0.00 | 60 | 1018.0 |
| 20260906014542 | 65 | 17 | 13.0 | 17.4 | 0.00 | 0.00 | 0.00 | 56 | 1018.0 |
| 20260906013057 | 67 | 5 | 11.3 | 19.1 | 0.00 | 0.00 | 0.00 | 54 | 1017.7 |
| 20260906011548 | 69 | 5 | 13.9 | 19.1 | 0.00 | 0.00 | 0.00 | 49 | 1017.8 |
| 20260906010043 | 71 | 18 | 13.0 | 18.2 | 0.00 | 0.00 | 0.00 | 47 | 1017.9 |
| 20260906004538 | 73 | 16 | 9.6 | 15.6 | 0.00 | 0.00 | 0.00 | 37 | 1018.0 |
| 20260906003046 | 75 | 20 | 9.6 | 12.2 | 0.00 | 0.00 | 0.00 | 34 | 1017.9 |
| 20260906001544 | 75 | 23 | 8.7 | 14.8 | 0.00 | 0.00 | 0.00 | 33 | 1018.0 |
| 20260906000047 | 76 | 46 | 8.7 | 14.8 | 0.00 | 0.00 | 0.00 | 33 | 1018.0 |
| 20260905234550 | 76 | 20 | 8.7 | 14.8 | 0.00 | 0.00 | 0.00 | 34 | 1018.0 |
| 20260905233044 | 75 | 33 | 5.2 | 13.0 | 0.00 | 0.00 | 0.00 | 34 | 1018.3 |
| 20260905231542 | 77 | 67 | 5.2 | 11.3 | 0.00 | 0.00 | 0.00 | 32 | 1018.1 |